sensor_id;sensor_type;location;lat;lon;timestamp;pressure;altitude;pressure_sealevel;temperature;humidity
11174;BME280;5643;50.856;12.088;2024-03-06T00:00:23;99751.28;;;5.00;100.00
11174;BME280;5643;50.856;12.088;2024-03-06T00:02:50;99758.44;;;4.95;100.00
11174;BME280;5643;50.856;12.088;2024-03-06T00:05:17;99756.91;;;4.91;100.00
11174;BME280;5643;50.856;12.088;2024-03-06T00:07:45;99753.88;;;5.00;100.00
11174;BME280;5643;50.856;12.088;2024-03-06T00:10:12;99764.06;;;5.03;100.00
11174;BME280;5643;50.856;12.088;2024-03-06T00:12:41;99761.63;;;5.00;100.00
11174;BME280;5643;50.856;12.088;2024-03-06T00:15:09;99764.84;;;5.05;100.00
11174;BME280;5643;50.856;12.088;2024-03-06T00:17:37;99761.63;;;5.00;100.00
11174;BME280;5643;50.856;12.088;2024-03-06T00:20:06;99761.81;;;4.97;100.00
11174;BME280;5643;50.856;12.088;2024-03-06T00:22:35;99765.75;;;4.87;100.00
11174;BME280;5643;50.856;12.088;2024-03-06T00:25:06;99770.94;;;4.87;100.00
11174;BME280;5643;50.856;12.088;2024-03-06T00:27:34;99768.84;;;4.93;100.00
11174;BME280;5643;50.856;12.088;2024-03-06T00:30:04;99763.66;;;4.76;100.00
11174;BME280;5643;50.856;12.088;2024-03-06T00:32:36;99775.25;;;4.86;100.00
11174;BME280;5643;50.856;12.088;2024-03-06T00:35:04;99776.22;;;4.84;100.00
11174;BME280;5643;50.856;12.088;2024-03-06T00:37:31;99774.41;;;4.86;100.00
11174;BME280;5643;50.856;12.088;2024-03-06T00:40:09;99778.34;;;4.76;100.00
11174;BME280;5643;50.856;12.088;2024-03-06T00:42:38;99777.44;;;4.77;100.00
11174;BME280;5643;50.856;12.088;2024-03-06T00:45:09;99781.22;;;4.69;100.00
11174;BME280;5643;50.856;12.088;2024-03-06T00:47:37;99793.25;;;4.70;100.00
11174;BME280;5643;50.856;12.088;2024-03-06T00:50:04;99787.38;;;4.67;100.00
11174;BME280;5643;50.856;12.088;2024-03-06T00:52:33;99792.88;;;4.61;100.00
11174;BME280;5643;50.856;12.088;2024-03-06T00:55:00;99800.53;;;4.62;100.00
11174;BME280;5643;50.856;12.088;2024-03-06T00:57:28;99794.22;;;4.68;100.00
11174;BME280;5643;50.856;12.088;2024-03-06T00:59:56;99796.38;;;4.77;100.00
11174;BME280;5643;50.856;12.088;2024-03-06T01:02:25;99795.19;;;4.84;100.00
11174;BME280;5643;50.856;12.088;2024-03-06T01:04:52;99794.72;;;4.76;100.00
11174;BME280;5643;50.856;12.088;2024-03-06T01:07:20;99802.84;;;4.68;100.00
11174;BME280;5643;50.856;12.088;2024-03-06T01:09:47;99804.53;;;4.51;100.00
11174;BME280;5643;50.856;12.088;2024-03-06T01:12:15;99807.81;;;4.54;100.00
11174;BME280;5643;50.856;12.088;2024-03-06T01:14:44;99812.44;;;4.66;100.00
11174;BME280;5643;50.856;12.088;2024-03-06T01:17:11;99811.09;;;4.77;100.00
11174;BME280;5643;50.856;12.088;2024-03-06T01:19:41;99812.13;;;4.72;100.00
11174;BME280;5643;50.856;12.088;2024-03-06T01:22:09;99811.38;;;4.70;100.00
11174;BME280;5643;50.856;12.088;2024-03-06T01:24:36;99822.06;;;4.63;100.00
11174;BME280;5643;50.856;12.088;2024-03-06T01:27:04;99825.28;;;4.68;100.00
11174;BME280;5643;50.856;12.088;2024-03-06T01:29:31;99826.13;;;4.68;100.00
11174;BME280;5643;50.856;12.088;2024-03-06T01:31:59;99826.50;;;4.61;100.00
11174;BME280;5643;50.856;12.088;2024-03-06T01:34:27;99829.41;;;4.53;100.00
11174;BME280;5643;50.856;12.088;2024-03-06T01:36:56;99829.97;;;4.60;100.00
11174;BME280;5643;50.856;12.088;2024-03-06T01:39:23;99828.44;;;4.75;100.00
11174;BME280;5643;50.856;12.088;2024-03-06T01:41:51;99837.47;;;4.66;100.00
11174;BME280;5643;50.856;12.088;2024-03-06T01:44:19;99838.44;;;4.63;100.00
11174;BME280;5643;50.856;12.088;2024-03-06T01:46:47;99842.06;;;4.59;100.00
11174;BME280;5643;50.856;12.088;2024-03-06T01:49:15;99844.47;;;4.45;100.00
11174;BME280;5643;50.856;12.088;2024-03-06T01:51:47;99838.66;;;4.40;100.00
11174;BME280;5643;50.856;12.088;2024-03-06T01:54:17;99844.09;;;4.34;100.00
11174;BME280;5643;50.856;12.088;2024-03-06T01:56:46;99844.03;;;4.36;100.00
11174;BME280;5643;50.856;12.088;2024-03-06T01:59:15;99845.38;;;4.44;100.00
11174;BME280;5643;50.856;12.088;2024-03-06T02:01:45;99839.81;;;4.52;100.00
11174;BME280;5643;50.856;12.088;2024-03-06T02:04:13;99849.53;;;4.47;100.00
11174;BME280;5643;50.856;12.088;2024-03-06T02:06:41;99843.56;;;4.46;100.00
11174;BME280;5643;50.856;12.088;2024-03-06T02:09:08;99846.81;;;4.31;100.00
11174;BME280;5643;50.856;12.088;2024-03-06T02:11:37;99854.28;;;4.37;100.00
11174;BME280;5643;50.856;12.088;2024-03-06T02:14:05;99851.00;;;4.34;100.00
11174;BME280;5643;50.856;12.088;2024-03-06T02:16:35;99858.94;;;4.31;100.00
11174;BME280;5643;50.856;12.088;2024-03-06T02:19:05;99853.75;;;4.31;100.00
11174;BME280;5643;50.856;12.088;2024-03-06T02:21:33;99849.00;;;4.40;100.00
11174;BME280;5643;50.856;12.088;2024-03-06T02:24:01;99852.44;;;4.41;100.00
11174;BME280;5643;50.856;12.088;2024-03-06T02:26:28;99853.81;;;4.48;100.00
11174;BME280;5643;50.856;12.088;2024-03-06T02:28:56;99851.44;;;4.24;100.00
11174;BME280;5643;50.856;12.088;2024-03-06T02:31:24;99856.44;;;4.27;100.00
11174;BME280;5643;50.856;12.088;2024-03-06T02:33:52;99853.03;;;4.27;100.00
11174;BME280;5643;50.856;12.088;2024-03-06T02:36:20;99856.81;;;4.20;100.00
11174;BME280;5643;50.856;12.088;2024-03-06T02:38:49;99864.69;;;4.17;100.00
11174;BME280;5643;50.856;12.088;2024-03-06T02:41:16;99864.34;;;4.24;100.00
11174;BME280;5643;50.856;12.088;2024-03-06T02:43:44;99863.00;;;4.16;100.00
11174;BME280;5643;50.856;12.088;2024-03-06T02:46:11;99873.97;;;4.21;100.00
11174;BME280;5643;50.856;12.088;2024-03-06T02:48:40;99873.88;;;4.24;100.00
11174;BME280;5643;50.856;12.088;2024-03-06T02:51:08;99875.59;;;4.23;100.00
11174;BME280;5643;50.856;12.088;2024-03-06T02:53:35;99873.28;;;4.17;100.00
11174;BME280;5643;50.856;12.088;2024-03-06T02:56:05;99872.13;;;4.24;100.00
11174;BME280;5643;50.856;12.088;2024-03-06T02:58:35;99873.44;;;4.33;100.00
11174;BME280;5643;50.856;12.088;2024-03-06T03:01:18;99868.94;;;4.18;100.00
11174;BME280;5643;50.856;12.088;2024-03-06T03:03:45;99868.00;;;4.20;100.00
11174;BME280;5643;50.856;12.088;2024-03-06T03:06:14;99868.94;;;4.18;100.00
11174;BME280;5643;50.856;12.088;2024-03-06T03:08:41;99874.53;;;4.09;100.00
11174;BME280;5643;50.856;12.088;2024-03-06T03:11:10;99873.63;;;4.10;100.00
11174;BME280;5643;50.856;12.088;2024-03-06T03:13:38;99875.75;;;4.20;100.00
11174;BME280;5643;50.856;12.088;2024-03-06T03:16:06;99879.44;;;4.15;100.00
11174;BME280;5643;50.856;12.088;2024-03-06T03:18:33;99871.09;;;4.08;100.00
11174;BME280;5643;50.856;12.088;2024-03-06T03:21:01;99874.28;;;4.15;100.00
11174;BME280;5643;50.856;12.088;2024-03-06T03:23:28;99879.22;;;4.19;100.00
11174;BME280;5643;50.856;12.088;2024-03-06T03:25:56;99881.56;;;4.25;100.00
11174;BME280;5643;50.856;12.088;2024-03-06T03:28:24;99885.88;;;4.25;100.00
11174;BME280;5643;50.856;12.088;2024-03-06T03:30:53;99885.16;;;4.21;100.00
11174;BME280;5643;50.856;12.088;2024-03-06T03:33:20;99884.59;;;4.15;100.00
11174;BME280;5643;50.856;12.088;2024-03-06T03:35:47;99886.41;;;4.13;100.00
11174;BME280;5643;50.856;12.088;2024-03-06T03:38:15;99891.25;;;4.20;100.00
11174;BME280;5643;50.856;12.088;2024-03-06T03:40:43;99896.22;;;4.25;100.00
11174;BME280;5643;50.856;12.088;2024-03-06T03:43:11;99897.53;;;4.15;100.00
11174;BME280;5643;50.856;12.088;2024-03-06T03:45:40;99890.28;;;4.03;100.00
11174;BME280;5643;50.856;12.088;2024-03-06T03:48:07;99896.94;;;4.08;100.00
11174;BME280;5643;50.856;12.088;2024-03-06T03:50:35;99897.59;;;4.13;100.00
11174;BME280;5643;50.856;12.088;2024-03-06T03:53:03;99901.66;;;4.19;100.00
11174;BME280;5643;50.856;12.088;2024-03-06T03:55:30;99900.88;;;3.97;100.00
11174;BME280;5643;50.856;12.088;2024-03-06T03:57:58;99894.81;;;3.98;100.00
11174;BME280;5643;50.856;12.088;2024-03-06T04:00:26;99892.28;;;3.96;100.00
11174;BME280;5643;50.856;12.088;2024-03-06T04:02:55;99898.06;;;3.82;100.00
11174;BME280;5643;50.856;12.088;2024-03-06T04:05:23;99899.78;;;3.82;100.00
11174;BME280;5643;50.856;12.088;2024-03-06T04:07:51;99900.25;;;3.71;100.00
11174;BME280;5643;50.856;12.088;2024-03-06T04:10:18;99908.31;;;3.64;100.00
11174;BME280;5643;50.856;12.088;2024-03-06T04:12:46;99913.41;;;3.65;100.00
11174;BME280;5643;50.856;12.088;2024-03-06T04:15:14;99914.69;;;3.55;100.00
11174;BME280;5643;50.856;12.088;2024-03-06T04:17:42;99912.34;;;3.49;100.00
11174;BME280;5643;50.856;12.088;2024-03-06T04:20:11;99916.84;;;3.44;100.00
11174;BME280;5643;50.856;12.088;2024-03-06T04:22:39;99933.47;;;3.38;100.00
11174;BME280;5643;50.856;12.088;2024-03-06T04:25:08;99926.19;;;3.26;100.00
11174;BME280;5643;50.856;12.088;2024-03-06T04:27:36;99931.28;;;3.28;100.00
11174;BME280;5643;50.856;12.088;2024-03-06T04:30:04;99935.81;;;3.23;100.00
11174;BME280;5643;50.856;12.088;2024-03-06T04:32:32;99935.63;;;3.27;100.00
11174;BME280;5643;50.856;12.088;2024-03-06T04:34:59;99936.09;;;3.37;100.00
11174;BME280;5643;50.856;12.088;2024-03-06T04:37:28;99941.00;;;3.21;100.00
11174;BME280;5643;50.856;12.088;2024-03-06T04:39:56;99940.00;;;3.47;100.00
11174;BME280;5643;50.856;12.088;2024-03-06T04:42:23;99944.50;;;3.42;100.00
11174;BME280;5643;50.856;12.088;2024-03-06T04:44:51;99947.69;;;3.49;100.00
11174;BME280;5643;50.856;12.088;2024-03-06T04:47:18;99949.16;;;3.54;100.00
11174;BME280;5643;50.856;12.088;2024-03-06T04:49:46;99952.72;;;3.52;100.00
11174;BME280;5643;50.856;12.088;2024-03-06T04:52:15;99952.09;;;3.45;100.00
11174;BME280;5643;50.856;12.088;2024-03-06T04:54:44;99955.44;;;3.49;100.00
11174;BME280;5643;50.856;12.088;2024-03-06T04:57:11;99949.47;;;3.68;100.00
11174;BME280;5643;50.856;12.088;2024-03-06T04:59:39;99953.69;;;3.69;100.00
11174;BME280;5643;50.856;12.088;2024-03-06T05:02:07;99959.97;;;3.64;100.00
11174;BME280;5643;50.856;12.088;2024-03-06T05:04:35;99967.41;;;3.50;100.00
11174;BME280;5643;50.856;12.088;2024-03-06T05:07:03;99963.00;;;3.53;100.00
11174;BME280;5643;50.856;12.088;2024-03-06T05:09:31;99964.84;;;3.50;100.00
11174;BME280;5643;50.856;12.088;2024-03-06T05:11:59;99965.09;;;3.22;100.00
11174;BME280;5643;50.856;12.088;2024-03-06T05:14:27;99966.19;;;3.38;100.00
11174;BME280;5643;50.856;12.088;2024-03-06T05:16:55;99962.09;;;3.32;100.00
11174;BME280;5643;50.856;12.088;2024-03-06T05:19:23;99966.38;;;3.33;100.00
11174;BME280;5643;50.856;12.088;2024-03-06T05:21:56;99964.28;;;3.20;100.00
11174;BME280;5643;50.856;12.088;2024-03-06T05:24:23;99971.84;;;3.24;100.00
11174;BME280;5643;50.856;12.088;2024-03-06T05:26:51;99972.75;;;3.23;100.00
11174;BME280;5643;50.856;12.088;2024-03-06T05:29:20;99978.50;;;3.08;100.00
11174;BME280;5643;50.856;12.088;2024-03-06T05:31:47;99988.59;;;3.14;100.00
11174;BME280;5643;50.856;12.088;2024-03-06T05:34:16;99981.66;;;3.16;100.00
11174;BME280;5643;50.856;12.088;2024-03-06T05:36:43;99983.66;;;3.08;100.00
11174;BME280;5643;50.856;12.088;2024-03-06T05:39:11;99992.94;;;2.90;100.00
11174;BME280;5643;50.856;12.088;2024-03-06T05:41:39;99995.97;;;3.02;100.00
11174;BME280;5643;50.856;12.088;2024-03-06T05:44:07;99984.22;;;3.16;100.00
11174;BME280;5643;50.856;12.088;2024-03-06T05:46:37;99996.47;;;3.11;100.00
11174;BME280;5643;50.856;12.088;2024-03-06T05:49:04;99994.28;;;3.00;100.00
11174;BME280;5643;50.856;12.088;2024-03-06T05:51:31;99997.97;;;2.93;100.00
11174;BME280;5643;50.856;12.088;2024-03-06T05:54:00;100000.97;;;3.06;100.00
11174;BME280;5643;50.856;12.088;2024-03-06T05:56:27;99999.72;;;2.93;100.00
11174;BME280;5643;50.856;12.088;2024-03-06T05:58:55;99994.34;;;2.76;100.00
11174;BME280;5643;50.856;12.088;2024-03-06T06:01:25;99999.44;;;2.77;100.00
11174;BME280;5643;50.856;12.088;2024-03-06T06:03:54;100011.34;;;2.81;100.00
11174;BME280;5643;50.856;12.088;2024-03-06T06:06:25;100012.22;;;2.80;100.00
11174;BME280;5643;50.856;12.088;2024-03-06T06:08:55;100013.69;;;2.87;100.00
11174;BME280;5643;50.856;12.088;2024-03-06T06:11:22;100017.50;;;3.00;100.00
11174;BME280;5643;50.856;12.088;2024-03-06T06:13:53;100021.50;;;2.86;100.00
11174;BME280;5643;50.856;12.088;2024-03-06T06:16:23;100019.81;;;2.85;100.00
11174;BME280;5643;50.856;12.088;2024-03-06T06:18:50;100022.63;;;2.77;100.00
11174;BME280;5643;50.856;12.088;2024-03-06T06:21:22;100023.97;;;2.64;100.00
11174;BME280;5643;50.856;12.088;2024-03-06T06:23:49;100022.59;;;2.55;100.00
11174;BME280;5643;50.856;12.088;2024-03-06T06:26:18;100034.63;;;2.55;100.00
11174;BME280;5643;50.856;12.088;2024-03-06T06:28:47;100030.16;;;2.60;100.00
11174;BME280;5643;50.856;12.088;2024-03-06T06:31:15;100037.22;;;2.55;100.00
11174;BME280;5643;50.856;12.088;2024-03-06T06:33:43;100043.28;;;2.52;100.00
11174;BME280;5643;50.856;12.088;2024-03-06T06:36:11;100048.72;;;2.70;100.00
11174;BME280;5643;50.856;12.088;2024-03-06T06:38:40;100045.50;;;2.63;100.00
11174;BME280;5643;50.856;12.088;2024-03-06T06:41:08;100047.91;;;2.68;100.00
11174;BME280;5643;50.856;12.088;2024-03-06T06:43:35;100050.09;;;2.80;100.00
11174;BME280;5643;50.856;12.088;2024-03-06T06:46:03;100051.94;;;2.76;100.00
11174;BME280;5643;50.856;12.088;2024-03-06T06:48:32;100053.38;;;2.83;100.00
11174;BME280;5643;50.856;12.088;2024-03-06T06:51:00;100061.50;;;2.97;100.00
11174;BME280;5643;50.856;12.088;2024-03-06T06:53:31;100062.50;;;3.17;100.00
11174;BME280;5643;50.856;12.088;2024-03-06T06:56:01;100060.13;;;3.34;100.00
11174;BME280;5643;50.856;12.088;2024-03-06T06:58:28;100066.66;;;3.21;100.00
11174;BME280;5643;50.856;12.088;2024-03-06T07:00:56;100063.84;;;3.27;100.00
11174;BME280;5643;50.856;12.088;2024-03-06T07:03:23;100068.00;;;3.31;100.00
11174;BME280;5643;50.856;12.088;2024-03-06T07:05:55;100069.97;;;3.24;100.00
11174;BME280;5643;50.856;12.088;2024-03-06T07:08:23;100075.56;;;3.35;100.00
11174;BME280;5643;50.856;12.088;2024-03-06T07:10:51;100077.44;;;3.32;100.00
11174;BME280;5643;50.856;12.088;2024-03-06T07:13:22;100082.25;;;3.41;100.00
11174;BME280;5643;50.856;12.088;2024-03-06T07:15:50;100088.53;;;3.34;100.00
11174;BME280;5643;50.856;12.088;2024-03-06T07:18:17;100089.47;;;3.08;100.00
11174;BME280;5643;50.856;12.088;2024-03-06T07:20:45;100096.41;;;3.08;100.00
11174;BME280;5643;50.856;12.088;2024-03-06T07:23:13;100099.78;;;3.33;100.00
11174;BME280;5643;50.856;12.088;2024-03-06T07:25:40;100098.47;;;3.21;100.00
11174;BME280;5643;50.856;12.088;2024-03-06T07:28:08;100104.09;;;3.32;100.00
11174;BME280;5643;50.856;12.088;2024-03-06T07:30:37;100101.72;;;3.50;100.00
11174;BME280;5643;50.856;12.088;2024-03-06T07:33:05;100107.94;;;3.44;100.00
11174;BME280;5643;50.856;12.088;2024-03-06T07:35:33;100113.34;;;3.61;100.00
11174;BME280;5643;50.856;12.088;2024-03-06T07:38:02;100112.31;;;3.65;100.00
11174;BME280;5643;50.856;12.088;2024-03-06T07:40:34;100115.94;;;3.83;100.00
11174;BME280;5643;50.856;12.088;2024-03-06T07:43:02;100119.47;;;3.80;100.00
11174;BME280;5643;50.856;12.088;2024-03-06T07:45:30;100109.94;;;4.04;100.00
11174;BME280;5643;50.856;12.088;2024-03-06T07:47:59;100118.34;;;3.88;100.00
11174;BME280;5643;50.856;12.088;2024-03-06T07:50:26;100119.97;;;4.12;100.00
11174;BME280;5643;50.856;12.088;2024-03-06T07:52:54;100126.41;;;4.02;100.00
11174;BME280;5643;50.856;12.088;2024-03-06T07:55:22;100128.84;;;4.26;100.00
11174;BME280;5643;50.856;12.088;2024-03-06T07:57:52;100120.47;;;4.42;100.00
11174;BME280;5643;50.856;12.088;2024-03-06T08:00:20;100125.88;;;4.57;100.00
11174;BME280;5643;50.856;12.088;2024-03-06T08:02:48;100126.09;;;4.31;100.00
11174;BME280;5643;50.856;12.088;2024-03-06T08:05:18;100128.56;;;4.34;100.00
11174;BME280;5643;50.856;12.088;2024-03-06T08:07:52;100131.63;;;4.44;100.00
11174;BME280;5643;50.856;12.088;2024-03-06T08:10:20;100128.25;;;4.62;100.00
11174;BME280;5643;50.856;12.088;2024-03-06T08:12:48;100122.28;;;5.02;100.00
11174;BME280;5643;50.856;12.088;2024-03-06T08:15:16;100125.59;;;5.24;100.00
11174;BME280;5643;50.856;12.088;2024-03-06T08:17:43;100136.88;;;4.83;100.00
11174;BME280;5643;50.856;12.088;2024-03-06T08:20:12;100130.69;;;4.87;100.00
11174;BME280;5643;50.856;12.088;2024-03-06T08:22:42;100143.44;;;4.91;100.00
11174;BME280;5643;50.856;12.088;2024-03-06T08:25:11;100140.75;;;5.33;100.00
11174;BME280;5643;50.856;12.088;2024-03-06T08:27:40;100144.16;;;5.34;100.00
11174;BME280;5643;50.856;12.088;2024-03-06T08:30:09;100146.44;;;5.21;100.00
11174;BME280;5643;50.856;12.088;2024-03-06T08:32:36;100152.84;;;5.33;100.00
11174;BME280;5643;50.856;12.088;2024-03-06T08:35:05;100147.69;;;5.51;100.00
11174;BME280;5643;50.856;12.088;2024-03-06T08:37:34;100156.50;;;5.85;100.00
11174;BME280;5643;50.856;12.088;2024-03-06T08:40:03;100152.75;;;5.92;100.00
11174;BME280;5643;50.856;12.088;2024-03-06T08:42:31;100152.53;;;5.78;100.00
11174;BME280;5643;50.856;12.088;2024-03-06T08:44:59;100156.66;;;6.00;100.00
11174;BME280;5643;50.856;12.088;2024-03-06T08:47:27;100164.09;;;6.08;100.00
11174;BME280;5643;50.856;12.088;2024-03-06T08:49:54;100167.53;;;6.09;100.00
11174;BME280;5643;50.856;12.088;2024-03-06T08:52:22;100169.78;;;5.97;100.00
11174;BME280;5643;50.856;12.088;2024-03-06T08:54:51;100165.91;;;6.25;100.00
11174;BME280;5643;50.856;12.088;2024-03-06T08:57:30;100172.72;;;6.09;100.00
11174;BME280;5643;50.856;12.088;2024-03-06T08:59:58;100172.97;;;6.57;100.00
11174;BME280;5643;50.856;12.088;2024-03-06T09:02:25;100167.69;;;6.41;100.00
11174;BME280;5643;50.856;12.088;2024-03-06T09:04:54;100167.16;;;6.52;100.00
11174;BME280;5643;50.856;12.088;2024-03-06T09:07:21;100162.91;;;6.15;100.00
11174;BME280;5643;50.856;12.088;2024-03-06T09:09:51;100170.94;;;6.28;100.00
11174;BME280;5643;50.856;12.088;2024-03-06T09:12:18;100169.03;;;6.84;100.00
11174;BME280;5643;50.856;12.088;2024-03-06T09:14:47;100163.53;;;6.91;100.00
11174;BME280;5643;50.856;12.088;2024-03-06T09:17:15;100162.69;;;6.90;100.00
11174;BME280;5643;50.856;12.088;2024-03-06T09:19:43;100175.78;;;6.53;100.00
11174;BME280;5643;50.856;12.088;2024-03-06T09:22:10;100172.63;;;6.82;100.00
11174;BME280;5643;50.856;12.088;2024-03-06T09:24:38;100176.28;;;6.78;100.00
11174;BME280;5643;50.856;12.088;2024-03-06T09:27:05;100172.28;;;7.22;100.00
11174;BME280;5643;50.856;12.088;2024-03-06T09:29:33;100171.03;;;7.29;100.00
11174;BME280;5643;50.856;12.088;2024-03-06T09:32:03;100170.25;;;7.45;100.00
11174;BME280;5643;50.856;12.088;2024-03-06T09:34:31;100171.34;;;7.41;100.00
11174;BME280;5643;50.856;12.088;2024-03-06T09:37:00;100169.03;;;7.52;100.00
11174;BME280;5643;50.856;12.088;2024-03-06T09:39:29;100173.50;;;7.33;100.00
11174;BME280;5643;50.856;12.088;2024-03-06T09:41:59;100164.97;;;7.95;100.00
11174;BME280;5643;50.856;12.088;2024-03-06T09:44:28;100172.56;;;8.31;100.00
11174;BME280;5643;50.856;12.088;2024-03-06T09:47:00;100171.91;;;7.63;100.00
11174;BME280;5643;50.856;12.088;2024-03-06T09:49:34;100172.06;;;7.76;100.00
11174;BME280;5643;50.856;12.088;2024-03-06T09:52:02;100185.06;;;7.76;100.00
11174;BME280;5643;50.856;12.088;2024-03-06T09:54:30;100182.81;;;8.01;100.00
11174;BME280;5643;50.856;12.088;2024-03-06T09:56:58;100184.41;;;7.72;100.00
11174;BME280;5643;50.856;12.088;2024-03-06T09:59:26;100191.41;;;8.03;100.00
11174;BME280;5643;50.856;12.088;2024-03-06T10:01:55;100188.22;;;7.98;100.00
11174;BME280;5643;50.856;12.088;2024-03-06T10:04:24;100193.63;;;7.45;100.00
11174;BME280;5643;50.856;12.088;2024-03-06T10:06:55;100192.88;;;7.76;100.00
11174;BME280;5643;50.856;12.088;2024-03-06T10:09:24;100194.41;;;8.27;100.00
11174;BME280;5643;50.856;12.088;2024-03-06T10:11:51;100192.28;;;8.35;100.00
11174;BME280;5643;50.856;12.088;2024-03-06T10:14:23;100190.69;;;8.62;100.00
11174;BME280;5643;50.856;12.088;2024-03-06T10:16:56;100187.72;;;8.54;100.00
11174;BME280;5643;50.856;12.088;2024-03-06T10:19:25;100193.16;;;8.65;100.00
11174;BME280;5643;50.856;12.088;2024-03-06T10:21:57;100193.38;;;8.76;100.00
11174;BME280;5643;50.856;12.088;2024-03-06T10:24:26;100192.34;;;8.79;100.00
11174;BME280;5643;50.856;12.088;2024-03-06T10:26:57;100198.06;;;8.85;100.00
11174;BME280;5643;50.856;12.088;2024-03-06T10:29:27;100195.94;;;8.92;100.00
11174;BME280;5643;50.856;12.088;2024-03-06T10:31:56;100199.09;;;8.67;100.00
11174;BME280;5643;50.856;12.088;2024-03-06T10:34:25;100201.59;;;8.84;100.00
11174;BME280;5643;50.856;12.088;2024-03-06T10:36:55;100202.06;;;8.91;100.00
11174;BME280;5643;50.856;12.088;2024-03-06T10:39:33;100197.06;;;8.72;100.00
11174;BME280;5643;50.856;12.088;2024-03-06T10:42:04;100201.63;;;8.69;100.00
11174;BME280;5643;50.856;12.088;2024-03-06T10:44:35;100191.25;;;9.27;100.00
11174;BME280;5643;50.856;12.088;2024-03-06T10:47:05;100189.78;;;9.37;100.00
11174;BME280;5643;50.856;12.088;2024-03-06T10:49:33;100192.63;;;9.18;100.00
11174;BME280;5643;50.856;12.088;2024-03-06T10:52:01;100187.75;;;9.42;100.00
11174;BME280;5643;50.856;12.088;2024-03-06T10:54:34;100182.31;;;9.31;100.00
11174;BME280;5643;50.856;12.088;2024-03-06T10:57:08;100188.94;;;9.22;100.00
11174;BME280;5643;50.856;12.088;2024-03-06T10:59:37;100184.41;;;9.68;100.00
11174;BME280;5643;50.856;12.088;2024-03-06T11:02:05;100189.94;;;9.34;100.00
11174;BME280;5643;50.856;12.088;2024-03-06T11:04:34;100176.75;;;9.79;100.00
11174;BME280;5643;50.856;12.088;2024-03-06T11:07:03;100179.72;;;9.31;100.00
11174;BME280;5643;50.856;12.088;2024-03-06T11:09:34;100187.38;;;9.48;100.00
11174;BME280;5643;50.856;12.088;2024-03-06T11:12:03;100186.88;;;9.98;100.00
11174;BME280;5643;50.856;12.088;2024-03-06T11:14:36;100187.19;;;9.79;100.00
11174;BME280;5643;50.856;12.088;2024-03-06T11:17:11;100182.78;;;9.94;100.00
11174;BME280;5643;50.856;12.088;2024-03-06T11:20:12;100184.28;;;10.39;100.00
11174;BME280;5643;50.856;12.088;2024-03-06T11:23:07;100178.13;;;10.40;100.00
11174;BME280;5643;50.856;12.088;2024-03-06T11:26:05;100175.69;;;11.16;100.00
11174;BME280;5643;50.856;12.088;2024-03-06T11:28:37;100170.78;;;10.72;100.00
11174;BME280;5643;50.856;12.088;2024-03-06T11:31:08;100173.06;;;10.51;100.00
11174;BME280;5643;50.856;12.088;2024-03-06T11:33:38;100173.53;;;10.17;100.00
11174;BME280;5643;50.856;12.088;2024-03-06T11:36:15;100173.19;;;10.62;100.00
11174;BME280;5643;50.856;12.088;2024-03-06T11:38:47;100173.25;;;10.48;100.00
11174;BME280;5643;50.856;12.088;2024-03-06T11:41:16;100164.91;;;11.08;100.00
11174;BME280;5643;50.856;12.088;2024-03-06T11:43:44;100167.03;;;10.63;100.00
11174;BME280;5643;50.856;12.088;2024-03-06T11:46:12;100168.50;;;11.32;100.00
11174;BME280;5643;50.856;12.088;2024-03-06T11:48:39;100176.41;;;10.53;100.00
11174;BME280;5643;50.856;12.088;2024-03-06T11:51:08;100169.63;;;10.10;100.00
11174;BME280;5643;50.856;12.088;2024-03-06T11:53:36;100178.84;;;10.42;100.00
11174;BME280;5643;50.856;12.088;2024-03-06T11:56:06;100171.16;;;10.93;100.00
11174;BME280;5643;50.856;12.088;2024-03-06T11:58:39;100170.97;;;10.96;100.00
11174;BME280;5643;50.856;12.088;2024-03-06T12:01:06;100180.94;;;10.37;100.00
11174;BME280;5643;50.856;12.088;2024-03-06T12:03:35;100157.28;;;11.05;100.00
11174;BME280;5643;50.856;12.088;2024-03-06T12:06:03;100172.78;;;10.68;100.00
11174;BME280;5643;50.856;12.088;2024-03-06T12:08:31;100171.50;;;11.13;100.00
11174;BME280;5643;50.856;12.088;2024-03-06T12:11:03;100165.97;;;11.18;100.00
11174;BME280;5643;50.856;12.088;2024-03-06T12:13:31;100174.78;;;10.38;100.00
11174;BME280;5643;50.856;12.088;2024-03-06T12:16:04;100176.19;;;9.74;100.00
11174;BME280;5643;50.856;12.088;2024-03-06T12:18:32;100171.22;;;10.39;100.00
11174;BME280;5643;50.856;12.088;2024-03-06T12:21:01;100167.72;;;11.05;100.00
11174;BME280;5643;50.856;12.088;2024-03-06T12:23:29;100161.69;;;11.17;100.00
11174;BME280;5643;50.856;12.088;2024-03-06T12:26:04;100167.75;;;11.30;100.00
11174;BME280;5643;50.856;12.088;2024-03-06T12:28:32;100163.78;;;11.25;100.00
11174;BME280;5643;50.856;12.088;2024-03-06T12:31:03;100172.88;;;11.44;100.00
11174;BME280;5643;50.856;12.088;2024-03-06T12:33:32;100179.53;;;10.98;100.00
11174;BME280;5643;50.856;12.088;2024-03-06T12:36:05;100178.75;;;10.03;100.00
11174;BME280;5643;50.856;12.088;2024-03-06T12:38:36;100180.50;;;10.31;100.00
11174;BME280;5643;50.856;12.088;2024-03-06T12:41:04;100182.44;;;10.41;100.00
11174;BME280;5643;50.856;12.088;2024-03-06T12:43:32;100169.81;;;11.00;100.00
11174;BME280;5643;50.856;12.088;2024-03-06T12:46:01;100168.56;;;11.81;100.00
11174;BME280;5643;50.856;12.088;2024-03-06T12:48:30;100169.41;;;11.57;100.00
11174;BME280;5643;50.856;12.088;2024-03-06T12:50:57;100170.75;;;11.87;100.00
11174;BME280;5643;50.856;12.088;2024-03-06T12:53:30;100176.59;;;10.90;100.00
11174;BME280;5643;50.856;12.088;2024-03-06T12:55:59;100175.13;;;10.19;100.00
11174;BME280;5643;50.856;12.088;2024-03-06T12:58:27;100180.28;;;9.50;100.00
11174;BME280;5643;50.856;12.088;2024-03-06T13:00:57;100169.94;;;11.24;100.00